Data for 01/24/2016

Time Sea-Level Adjusted Pressure Absolute Pressure Temperature Relative Humidity Dew Point   
(mb) (inHg) (mb) (inHg) (C) (F) (%) (C) (F)
00:05 1011 29.85 840 24.81 -0.8 30.5 93 -1.9 28.6
00:10 1011 29.85 840 24.81 -0.8 30.6 93 -1.8 28.8
00:15 1011 29.85 840 24.81 -0.6 30.8 93 -1.6 29.1
00:20 1011 29.85 840 24.81 -0.6 31 93 -1.5 29.3
00:25 1011 29.85 840 24.81 -0.6 30.9 94 -1.5 29.2
00:30 1011 29.85 840 24.81 -0.6 30.9 94 -1.5 29.3
00:35 1011 29.85 840 24.81 -0.6 30.9 94 -1.5 29.3
00:40 1011 29.85 840 24.81 -0.6 30.9 94 -1.5 29.3
00:45 1011 29.85 840 24.81 -0.8 30.6 93 -1.7 28.9
00:50 1011 29.85 840 24.81 -1 30.1 93 -2 28.4
00:55 1011 29.85 840 24.81 -1.1 29.9 93 -2.1 28.3
01:00 1011 29.85 840 24.81 -1.2 29.9 94 -2.1 28.3
01:05 1011 29.85 840 24.81 -1.2 29.9 93 -2.1 28.2
01:10 1011 29.85 840 24.81 -1.2 29.9 93 -2.1 28.2
01:15 1011 29.85 840 24.81 -1.2 29.9 93 -2.2 28.1
01:20 1010 29.83 840 24.81 -1.2 29.8 93 -2.2 28.1
01:25 1010 29.83 840 24.81 -1.2 29.9 93 -2.2 28
01:30 1010 29.83 840 24.81 -1.2 29.8 93 -2.3 27.9
01:35 1010 29.83 840 24.81 -1.2 29.8 93 -2.3 27.9
01:40 1010 29.83 840 24.81 -1.1 30 93 -2.2 28.1
01:45 1010 29.83 840 24.81 -1 30.2 92 -2.1 28.2
01:50 1010 29.83 840 24.81 -0.9 30.4 92 -2.1 28.3
01:55 1010 29.83 840 24.81 -1 30.2 91 -2.2 28
02:00 1010 29.83 840 24.81 -1 30.2 91 -2.2 28
02:05 1010 29.83 840 24.81 -1 30.2 92 -2.2 28
02:10 1010 29.83 840 24.81 -1 30.3 91 -2.2 28.1
02:15 1010 29.83 840 24.81 -1 30.2 91 -2.3 27.9
02:20 1010 29.83 840 24.81 -1.1 30 91 -2.4 27.7
02:25 1010 29.83 840 24.81 -1.3 29.7 91 -2.6 27.4
02:30 1010 29.83 840 24.81 -1.4 29.5 92 -2.6 27.4
02:35 1010 29.83 840 24.81 -1.4 29.5 92 -2.5 27.6
02:40 1010 29.83 839 24.78 -1.2 29.8 92 -2.3 27.8
02:45 1010 29.83 839 24.78 -1.1 30.1 92 -2.3 27.9
02:50 1010 29.83 840 24.81 -1.3 29.7 91 -2.5 27.5
02:55 1010 29.83 839 24.78 -1.3 29.6 92 -2.5 27.5
03:00 1010 29.83 839 24.78 -1.3 29.7 92 -2.5 27.5
03:05 1010 29.83 839 24.78 -1.3 29.6 91 -2.6 27.4
03:10 1010 29.83 840 24.81 -1.4 29.5 92 -2.6 27.4
03:15 1010 29.83 840 24.81 -1.3 29.6 92 -2.5 27.4
03:20 1010 29.83 840 24.81 -1.4 29.5 92 -2.6 27.4
03:25 1010 29.83 840 24.81 -1.4 29.5 91 -2.6 27.3
03:30 1010 29.83 840 24.81 -1.4 29.5 92 -2.6 27.3
03:35 1010 29.83 840 24.81 -1.3 29.6 91 -2.5 27.4
03:40 1010 29.83 840 24.81 -1.3 29.7 91 -2.5 27.4
03:45 1010 29.83 840 24.81 -1.3 29.7 91 -2.6 27.4
03:50 1010 29.83 840 24.81 -1.2 29.9 90 -2.6 27.2
03:55 1010 29.83 840 24.81 -1.2 29.8 90 -2.6 27.2
04:00 1010 29.83 840 24.81 -1.2 29.8 90 -2.7 27.2
04:05 1010 29.83 840 24.81 -1.2 29.8 90 -2.7 27.1
04:10 1011 29.85 840 24.81 -1.3 29.7 90 -2.7 27.2
04:15 1011 29.85 840 24.81 -1.2 29.8 90 -2.7 27.2
04:20 1011 29.85 840 24.81 -1.3 29.6 90 -2.8 27
04:25 1011 29.85 840 24.81 -1.4 29.5 90 -2.8 27
04:30 1011 29.85 840 24.81 -1.5 29.4 91 -2.8 27
04:35 1011 29.85 840 24.81 -1.6 29.1 91 -2.8 26.9
04:40 1011 29.85 840 24.81 -1.8 28.7 92 -3 26.6
04:45 1011 29.85 840 24.81 -2 28.3 92 -3.2 26.3
04:50 1011 29.85 840 24.81 -2.2 28 92 -3.3 26.1
04:55 1011 29.85 840 24.81 -2.4 27.7 92 -3.4 25.8
05:00 1011 29.85 840 24.81 -2.5 27.5 93 -3.5 25.7
05:05 1011 29.85 840 24.81 -2.6 27.3 93 -3.6 25.6
05:10 1011 29.85 840 24.81 -2.7 27.1 93 -3.6 25.4
05:15 1011 29.85 840 24.81 -2.8 27 94 -3.6 25.5
05:20 1011 29.85 840 24.81 -2.8 27.1 94 -3.6 25.6
05:25 1011 29.85 840 24.81 -2.9 26.7 93 -3.9 25
05:30 1011 29.85 840 24.81 -3.4 25.9 94 -4.2 24.5
05:35 1011 29.85 840 24.81 -3.3 26 95 -4.1 24.6
05:40 1011 29.85 840 24.81 -3.2 26.3 95 -3.9 25
05:45 1011 29.85 840 24.81 -3.1 26.4 95 -3.9 25.1
05:50 1011 29.85 840 24.81 -3.1 26.4 95 -3.9 25.1
05:55 1011 29.85 840 24.81 -3.3 26.1 95 -4 24.8
06:00 1011 29.85 840 24.81 -3.3 26.1 95 -4 24.8
06:05 1011 29.85 840 24.81 -3.1 26.4 95 -3.8 25.2
06:10 1011 29.85 840 24.81 -3.1 26.5 95 -3.8 25.2
06:15 1011 29.85 840 24.81 -3 26.5 95 -3.8 25.2
06:20 1011 29.85 840 24.81 -3.1 26.5 95 -3.8 25.1
06:25 1011 29.85 840 24.81 -3.2 26.2 95 -4 24.9
06:30 1011 29.85 840 24.81 -3.1 26.3 95 -3.9 25
06:35 1011 29.85 840 24.81 -3.2 26.3 94 -4 24.9
06:40 1011 29.85 840 24.81 -3.3 26.1 94 -4.1 24.5
06:45 1011 29.85 840 24.81 -3.1 26.4 92 -4.3 24.3
06:50 1011 29.85 840 24.81 -2.9 26.7 90 -4.3 24.2
06:55 1011 29.85 840 24.81 -2.6 27.3 88 -4.3 24.3
07:00 1011 29.85 840 24.81 -2.7 27.2 88 -4.4 24.1
07:05 1011 29.85 840 24.81 -2.6 27.3 87 -4.4 24
07:10 1011 29.85 840 24.81 -2.7 27.1 88 -4.4 24
07:15 1011 29.85 840 24.81 -2.3 27.9 85 -4.5 24
07:20 1011 29.85 840 24.81 -2.2 28.1 85 -4.3 24.2
07:25 1011 29.85 840 24.81 -2.2 28.1 85 -4.4 24.1
07:30 1011 29.85 840 24.81 -2 28.4 84 -4.4 24.1
07:35 1011 29.85 840 24.81 -2 28.5 85 -4.2 24.4
07:40 1011 29.85 840 24.81 -2 28.5 82 -4.6 23.8
07:45 1011 29.85 840 24.81 -2.4 27.7 84 -4.8 23.4
07:50 1011 29.85 840 24.81 -2.6 27.3 84 -5 23
07:55 1011 29.85 840 24.81 -3 26.5 86 -5.1 22.8
08:00 1011 29.85 840 24.81 -3.3 26.1 86 -5.2 22.6
08:05 1011 29.85 840 24.81 -3.5 25.7 87 -5.4 22.2
08:10 1011 29.85 840 24.81 -3.6 25.5 87 -5.5 22.2
08:15 1011 29.85 840 24.81 -3.4 25.9 87 -5.2 22.6
08:20 1011 29.85 840 24.81 -3.1 26.5 86 -5.1 22.7
08:25 1011 29.85 840 24.81 -3.3 26 88 -5.1 22.8
08:30 1011 29.85 840 24.81 -3.3 26.1 89 -4.8 23.3
08:35 1011 29.85 840 24.81 -2.9 26.7 89 -4.6 23.7
08:40 1011 29.85 840 24.81 -2.5 27.5 87 -4.4 24
08:45 1011 29.85 840 24.81 -2.3 27.8 85 -4.4 24
08:50 1011 29.85 840 24.81 -2.1 28.2 82 -4.7 23.5
08:55 1011 29.85 840 24.81 -1.7 28.9 82 -4.5 24
09:00 1011 29.85 841 24.83 -1.4 29.4 81 -4.3 24.3
09:05 1011 29.85 841 24.83 -1.6 29.2 79 -4.7 23.5
09:10 1011 29.85 841 24.83 -1.9 28.6 78 -5.2 22.6
09:15 1011 29.85 841 24.83 -2 28.3 78 -5.3 22.4
09:20 1011 29.85 841 24.83 -2.2 28 80 -5.3 22.5
09:25 1011 29.85 841 24.83 -2.6 27.4 81 -5.5 22.2
09:30 1011 29.85 841 24.83 -2.7 27.2 81 -5.4 22.3
09:35 1012 29.88 841 24.83 -2.9 26.9 83 -5.4 22.4
09:40 1012 29.88 841 24.83 -3.1 26.5 82 -5.7 21.8
09:45 1012 29.88 841 24.83 -2.9 26.8 81 -5.8 21.6
09:50 1012 29.88 841 24.83 -2.6 27.4 80 -5.6 22
09:55 1012 29.88 841 24.83 -2.2 28 78 -5.5 22
10:00 1012 29.88 841 24.83 -1.9 28.5 77 -5.4 22.2
10:05 1012 29.88 841 24.83 -2.1 28.3 78 -5.3 22.4
10:10 1012 29.88 841 24.83 -2.3 27.9 80 -5.3 22.5
10:15 1012 29.88 841 24.83 -2.1 28.3 79 -5.2 22.7
10:20 1012 29.88 841 24.83 -1.8 28.8 77 -5.3 22.5
10:25 1012 29.88 841 24.83 -1.7 29 77 -5.2 22.6
10:30 1012 29.88 841 24.83 -1.6 29.2 75 -5.5 22.1
10:35 1012 29.88 841 24.83 -1.1 30 71 -5.7 21.7
10:40 1012 29.88 841 24.83 -0.7 30.7 71 -5.3 22.5
10:45 1012 29.88 841 24.83 -0.6 30.9 73 -4.9 23.2
10:50 1012 29.88 841 24.83 -0.7 30.8 75 -4.6 23.8
10:55 1012 29.88 841 24.83 -1.2 29.9 77 -4.7 23.5
11:00 1012 29.88 841 24.83 -1.3 29.7 74 -5.3 22.5
11:05 1012 29.88 841 24.83 -1 30.3 70 -5.7 21.8
11:10 1012 29.88 841 24.83 -0.4 31.3 69 -5.3 22.4
11:15 1012 29.88 841 24.83 -0 31.9 67 -5.4 22.3
11:20 1012 29.88 841 24.83 0.2 32.4 67 -5.1 22.8
11:25 1012 29.88 841 24.83 0.3 32.5 67 -5.2 22.7
11:30 1012 29.88 841 24.83 0.3 32.5 67 -5.2 22.7
11:35 1012 29.88 841 24.83 0.2 32.4 68 -5 22.9
11:40 1012 29.88 841 24.83 0.4 32.6 70 -4.6 23.8
11:45 1012 29.88 841 24.83 0.6 33 68 -4.7 23.5
11:50 1012 29.88 841 24.83 0.8 33.5 66 -4.9 23.2
11:55 1012 29.88 842 24.86 1.3 34.3 64 -4.8 23.4
12:00 1012 29.88 842 24.86 2 35.6 63 -4.3 24.2
12:05 1012 29.88 842 24.86 1.9 35.3 68 -3.4 25.9
12:10 1012 29.88 842 24.86 1.6 34.8 70 -3.3 26.1
12:15 1012 29.88 842 24.86 1.3 34.3 70 -3.6 25.4
12:20 1012 29.88 841 24.83 0.8 33.5 69 -4.3 24.3
12:25 1012 29.88 841 24.83 0.8 33.5 66 -4.9 23.2
12:30 1012 29.88 841 24.83 1.2 34.1 65 -4.7 23.5
12:35 1012 29.88 841 24.83 1.6 34.8 63 -4.8 23.4
12:40 1012 29.88 842 24.86 2 35.5 62 -4.7 23.6
12:45 1012 29.88 842 24.86 2.3 36.1 63 -4.2 24.5
12:50 1012 29.88 841 24.83 1.9 35.4 64 -4.2 24.5
12:55 1012 29.88 841 24.83 2 35.5 64 -4.1 24.7
13:00 1012 29.88 841 24.83 1.5 34.8 69 -3.5 25.6
13:05 1012 29.88 841 24.83 1.1 33.9 67 -4.4 24.1
13:10 1012 29.88 841 24.83 1.2 34.1 66 -4.4 24
13:15 1012 29.88 841 24.83 1.2 34.2 66 -4.4 24
13:20 1012 29.88 841 24.83 1.9 35.4 61 -4.9 23.3
13:25 1012 29.88 841 24.83 2.9 37.2 55 -5.3 22.5
13:30 1012 29.88 841 24.83 3.7 38.6 55 -4.4 24
13:35 1012 29.88 841 24.83 3.9 38.9 56 -4.2 24.4
13:40 1012 29.88 841 24.83 3.9 39.1 56 -4.1 24.7
13:45 1012 29.88 841 24.83 3.7 38.6 57 -4 24.8
13:50 1012 29.88 841 24.83 3.5 38.3 58 -3.9 24.9
13:55 1012 29.88 841 24.83 3.5 38.3 59 -3.8 25.1
14:00 1012 29.88 841 24.83 3.5 38.3 59 -3.7 25.4
14:05 1012 29.88 841 24.83 3.2 37.7 60 -3.8 25.2
14:10 1012 29.88 841 24.83 2.6 36.6 66 -3.2 26.2
14:15 1012 29.88 841 24.83 2.2 35.9 68 -3 26.6
14:20 1012 29.88 841 24.83 1.9 35.4 70 -2.9 26.7
14:25 1012 29.88 841 24.83 1.6 35 70 -3.2 26.2
14:30 1012 29.88 841 24.83 1.2 34.2 71 -3.4 25.8
14:35 1012 29.88 841 24.83 1 33.8 72 -3.4 25.9
14:40 1012 29.88 841 24.83 1.1 34 71 -3.6 25.6
14:45 1012 29.88 841 24.83 1.6 34.9 69 -3.5 25.8
14:50 1012 29.88 841 24.83 1.7 35.1 68 -3.5 25.7
14:55 1012 29.88 841 24.83 1.9 35.5 67 -3.6 25.5
15:00 1012 29.88 841 24.83 2.2 35.9 67 -3.4 26
15:05 1012 29.88 841 24.83 2.1 35.9 67 -3.3 26.1
15:10 1012 29.88 841 24.83 2.3 36.1 65 -3.6 25.5
15:15 1012 29.88 841 24.83 2.4 36.3 65 -3.6 25.6
15:20 1012 29.88 841 24.83 2.5 36.5 64 -3.6 25.6
15:25 1012 29.88 841 24.83 2.6 36.6 63 -3.7 25.3
15:30 1012 29.88 841 24.83 2.9 37.3 62 -3.5 25.6
15:35 1012 29.88 842 24.86 2.6 36.7 63 -3.7 25.4
15:40 1012 29.88 842 24.86 2.3 36.1 66 -3.5 25.7
15:45 1013 29.91 842 24.86 2 35.6 67 -3.6 25.6
15:50 1013 29.91 842 24.86 1.6 34.9 68 -3.7 25.4
15:55 1013 29.91 842 24.86 1.6 34.8 67 -4 24.8
16:00 1013 29.91 842 24.86 1.5 34.7 66 -4.3 24.3
16:05 1013 29.91 842 24.86 1.3 34.3 67 -4.2 24.5
16:10 1013 29.91 842 24.86 1.2 34.2 66 -4.3 24.2
16:15 1013 29.91 842 24.86 1.3 34.4 66 -4.3 24.2
16:20 1013 29.91 842 24.86 0.8 33.5 70 -4 24.8
16:25 1013 29.91 842 24.86 -0 32 74 -4.1 24.6
16:30 1013 29.91 842 24.86 -0.3 31.5 74 -4.3 24.3
16:35 1013 29.91 842 24.86 0 32.1 73 -4.3 24.3
16:40 1013 29.91 842 24.86 -0.2 31.6 72 -4.7 23.6
16:45 1013 29.91 842 24.86 -0.3 31.5 72 -4.8 23.4
16:50 1013 29.91 842 24.86 -0.2 31.6 72 -4.7 23.5
16:55 1013 29.91 842 24.86 -0 31.9 70 -4.8 23.3
17:00 1013 29.91 842 24.86 0.6 33 66 -5 22.9
17:05 1013 29.91 842 24.86 1.3 34.4 63 -4.9 23.1
17:10 1013 29.91 843 24.89 2 35.5 61 -4.7 23.6
17:15 1013 29.91 843 24.89 1.7 35 63 -4.7 23.6
17:20 1013 29.91 843 24.89 1.3 34.4 64 -4.8 23.4
17:25 1013 29.91 843 24.89 0.8 33.4 66 -4.9 23.2
17:30 1014 29.94 843 24.89 0.4 32.6 68 -4.9 23.2
17:35 1014 29.94 843 24.89 0.2 32.4 67 -5.2 22.6
17:40 1014 29.94 843 24.89 0.1 32.3 68 -5.1 22.8
17:45 1014 29.94 843 24.89 0 32 67 -5.4 22.4
17:50 1014 29.94 843 24.89 0.1 32.1 68 -5.2 22.7
17:55 1014 29.94 843 24.89 0 32 66 -5.5 22.1
18:00 1014 29.94 843 24.89 -0.2 31.6 65 -6 21.2
18:05 1014 29.94 843 24.89 -0.3 31.4 67 -5.8 21.5
18:10 1014 29.94 843 24.89 -0.3 31.5 67 -5.7 21.7
18:15 1014 29.94 843 24.89 -0.1 31.8 65 -5.8 21.5
18:20 1014 29.94 843 24.89 -0 31.9 66 -5.7 21.7
18:25 1014 29.94 843 24.89 0.1 32.2 65 -5.8 21.6
18:30 1014 29.94 843 24.89 0.2 32.3 65 -5.6 22
18:35 1014 29.94 843 24.89 0.2 32.4 64 -5.8 21.6
18:40 1014 29.94 844 24.92 0.3 32.5 65 -5.6 21.9
18:45 1014 29.94 844 24.92 0.4 32.6 64 -5.7 21.7
18:50 1015 29.97 844 24.92 0.2 32.4 65 -5.5 22
18:55 1015 29.97 844 24.92 0.2 32.4 67 -5.3 22.5
19:00 1015 29.97 844 24.92 0.2 32.3 67 -5.2 22.7
19:05 1015 29.97 844 24.92 0.1 32.2 68 -5 23
19:10 1015 29.97 844 24.92 0.1 32.1 70 -4.8 23.3
19:15 1015 29.97 844 24.92 0.1 32.2 69 -5 23
19:20 1015 29.97 844 24.92 0.1 32.1 69 -5 23
19:25 1015 29.97 844 24.92 -0.1 31.8 73 -4.3 24.2
19:30 1015 29.97 844 24.92 -0.5 31.2 77 -3.9 24.9
19:35 1015 29.97 845 24.95 -0.8 30.6 82 -3.5 25.7
19:40 1015 29.97 845 24.95 -1.2 29.9 86 -3.3 26.1
19:45 1015 29.97 845 24.95 -1.6 29.2 89 -3.2 26.2
19:50 1015 29.97 844 24.92 -1.8 28.7 89 -3.4 25.9
19:55 1015 29.97 845 24.95 -1.8 28.7 88 -3.5 25.6
20:00 1015 29.97 845 24.95 -1.8 28.8 88 -3.5 25.6
20:05 1016 30 845 24.95 -1.8 28.7 87 -3.7 25.4
20:10 1016 30 845 24.95 -1.8 28.8 87 -3.7 25.3
20:15 1016 30 845 24.95 -1.7 28.9 87 -3.7 25.3
20:20 1016 30 845 24.95 -1.7 28.9 87 -3.7 25.4
20:25 1016 30 845 24.95 -1.7 28.9 87 -3.7 25.4
20:30 1016 30 845 24.95 -1.7 29 87 -3.6 25.5
20:35 1016 30 845 24.95 -1.6 29.1 87 -3.6 25.6
20:40 1016 30 846 24.98 -1.6 29.1 86 -3.7 25.4
20:45 1016 30 846 24.98 -1.6 29.1 86 -3.6 25.5
20:50 1016 30 846 24.98 -1.6 29.1 86 -3.6 25.5
20:55 1017 30.03 846 24.98 -1.6 29.1 87 -3.5 25.6
21:00 1017 30.03 846 24.98 -1.6 29.1 87 -3.5 25.7
21:05 1017 30.03 846 24.98 -1.7 28.9 87 -3.5 25.6
21:10 1017 30.03 846 24.98 -1.7 28.9 88 -3.5 25.6
21:15 1017 30.03 846 24.98 -1.8 28.8 88 -3.5 25.7
21:20 1017 30.03 846 24.98 -1.8 28.7 89 -3.5 25.7
21:25 1017 30.03 846 24.98 -1.9 28.5 88 -3.7 25.3
21:30 1017 30.03 846 24.98 -2 28.5 87 -3.8 25.1
21:35 1017 30.03 846 24.98 -2 28.4 87 -3.9 25
21:40 1017 30.03 846 24.98 -2.1 28.2 87 -3.9 24.9
21:45 1017 30.03 846 24.98 -2 28.3 87 -4 24.9
21:50 1017 30.03 846 24.98 -1.9 28.6 86 -3.9 25
21:55 1017 30.03 846 24.98 -1.8 28.7 86 -3.9 24.9
22:00 1017 30.03 847 25.01 -1.9 28.7 85 -4 24.8
22:05 1017 30.03 847 25.01 -1.8 28.7 85 -4 24.7
22:10 1017 30.03 847 25.01 -1.8 28.8 84 -4.2 24.5
22:15 1017 30.03 847 25.01 -1.7 28.9 84 -4.1 24.6
22:20 1018 30.06 847 25.01 -1.6 29 83 -4.1 24.6
22:25 1018 30.06 847 25.01 -1.6 29.1 83 -4.1 24.7
22:30 1018 30.06 847 25.01 -1.5 29.2 82 -4.3 24.3
22:35 1018 30.06 847 25.01 -1.4 29.4 81 -4.2 24.4
22:40 1018 30.06 847 25.01 -1.5 29.3 83 -4 24.8
22:45 1018 30.06 847 25.01 -1.6 29.1 83 -4.1 24.6
22:50 1018 30.06 847 25.01 -1.6 29.1 81 -4.5 24
22:55 1018 30.06 847 25.01 -1.4 29.5 81 -4.3 24.2
23:00 1018 30.06 847 25.01 -1.4 29.5 81 -4.2 24.4
23:05 1018 30.06 847 25.01 -1.4 29.5 80 -4.4 24
23:10 1018 30.06 847 25.01 -1.4 29.5 79 -4.6 23.8
23:15 1018 30.06 847 25.01 -1.3 29.7 76 -5 23.1
23:20 1018 30.06 847 25.01 -1.2 29.8 76 -5 23.1
23:25 1018 30.06 847 25.01 -1.3 29.7 76 -4.9 23.1
23:30 1018 30.06 848 25.04 -1.3 29.7 77 -4.8 23.3
23:35 1018 30.06 848 25.04 -1.3 29.6 78 -4.7 23.5
23:40 1018 30.06 848 25.04 -1.4 29.5 77 -4.9 23.2
23:45 1018 30.06 848 25.04 -1.4 29.5 76 -5.1 22.8
23:50 1018 30.06 848 25.04 -1.3 29.6 73 -5.6 21.9
23:55 1019 30.09 848 25.04 -1.2 29.8 72 -5.7 21.8
24:00 1019 30.09 848 25.04 -1.2 29.8 71 -5.8 21.6